TimeGMT,TemperatureF,Dew PointF,Humidity,Sea Level PressureIn,VisibilityMPH,Wind Direction,Wind SpeedMPH,Gust SpeedMPH,PrecipitationIn,Events,Conditions,WindDirDegrees,DateUTC
12:00 AM,55,52,84,30.00,11,South,8.9,,,Rain,Light Drizzle,190,2012-11-13 00:00:00
12:00 AM,55.4,51.8,88,29.98,6.2,South,8.1,-,N/A,,Mostly Cloudy,190,2012-11-13 00:00:00
12:30 AM,53.6,51.8,94,29.98,6.2,South,8.1,-,N/A,,Light Drizzle,190,2012-11-13 00:30:00
1:00 AM,53.6,51.8,94,29.98,6.2,South,6.9,-,N/A,,Light Drizzle,190,2012-11-13 01:00:00
1:30 AM,55.4,51.8,88,29.98,6.2,South,6.9,-,N/A,,Mostly Cloudy,190,2012-11-13 01:30:00
2:00 AM,55.4,51.8,88,29.98,6.2,South,8.1,-,N/A,,Mostly Cloudy,180,2012-11-13 02:00:00
2:30 AM,55.4,51.8,88,29.98,6.2,SSE,5.8,-,N/A,,Mostly Cloudy,150,2012-11-13 02:30:00
3:00 AM,55.4,51.8,88,29.98,6.2,SSW,10.4,-,N/A,,Mostly Cloudy,200,2012-11-13 03:00:00
3:30 AM,55.4,51.8,88,29.95,6.2,SSW,19.6,-,N/A,,Mostly Cloudy,210,2012-11-13 03:30:00
4:00 AM,55.4,51.8,88,29.95,6.2,SW,17.3,-,N/A,,Mostly Cloudy,220,2012-11-13 04:00:00
4:30 AM,55.4,50.0,82,29.95,6.2,SSW,21.9,-,N/A,,Mostly Cloudy,210,2012-11-13 04:30:00
5:00 AM,55.4,50.0,82,29.95,6.2,SW,21.9,35.7,N/A,,Mostly Cloudy,220,2012-11-13 05:00:00
5:30 AM,55.4,50.0,82,29.98,6.2,SW,25.3,39.1,N/A,,Mostly Cloudy,220,2012-11-13 05:30:00
6:00 AM,55,49,72,29.99,16,SSW,24.6,,,,Partly Cloudy,210,2012-11-13 06:00:00
6:00 AM,55.4,48.2,77,29.98,6.2,SSW,25.3,36.8,N/A,,Mostly Cloudy,210,2012-11-13 06:00:00
6:30 AM,55.4,48.2,77,29.98,6.2,SSW,19.6,-,N/A,,Mostly Cloudy,210,2012-11-13 06:30:00
7:00 AM,55.4,48.2,77,29.98,6.2,SSW,20.7,-,N/A,,Mostly Cloudy,210,2012-11-13 07:00:00
7:30 AM,53.6,48.2,82,29.98,6.2,SSW,17.3,28.8,N/A,,Mostly Cloudy,210,2012-11-13 07:30:00
8:00 AM,55.4,48.2,77,29.98,6.2,SSW,18.4,-,N/A,,Mostly Cloudy,210,2012-11-13 08:00:00
8:30 AM,53.6,48.2,82,29.98,6.2,SSW,20.7,-,N/A,,Mostly Cloudy,210,2012-11-13 08:30:00
9:00 AM,53.6,50.0,88,29.98,6.2,SSW,24.2,-,N/A,,Mostly Cloudy,210,2012-11-13 09:00:00
9:30 AM,55.4,50.0,82,29.98,6.2,SSW,21.9,-,N/A,,Mostly Cloudy,210,2012-11-13 09:30:00
10:00 AM,55.4,50.0,82,29.98,6.2,SW,20.7,-,N/A,,Mostly Cloudy,220,2012-11-13 10:00:00
10:30 AM,55.4,50.0,82,29.98,6.2,SSW,21.9,-,N/A,,Mostly Cloudy,210,2012-11-13 10:30:00
11:00 AM,55.4,50.0,82,30.01,6.2,SSW,24.2,35.7,N/A,,Mostly Cloudy,210,2012-11-13 11:00:00
11:30 AM,55.4,50.0,82,30.01,6.2,SSW,20.7,33.4,N/A,,Mostly Cloudy,210,2012-11-13 11:30:00
12:00 PM,56,51,76,30.01,22,SW,24.6,,,,Mostly Cloudy,220,2012-11-13 12:00:00
12:00 PM,55.4,50.0,82,30.01,6.2,SW,25.3,39.1,N/A,,Mostly Cloudy,220,2012-11-13 12:00:00
12:30 PM,55.4,50.0,82,29.98,6.2,SSW,25.3,36.8,N/A,,Mostly Cloudy,210,2012-11-13 12:30:00
1:00 PM,55.4,50.0,82,29.98,6.2,SSW,26.5,38.0,N/A,,Mostly Cloudy,210,2012-11-13 13:00:00
1:30 PM,55.4,50.0,82,30.01,6.2,SSW,21.9,-,N/A,,Mostly Cloudy,210,2012-11-13 13:30:00
2:00 PM,55.4,50.0,82,30.01,6.2,SW,25.3,-,N/A,,Mostly Cloudy,220,2012-11-13 14:00:00
2:30 PM,55.4,50.0,82,30.01,6.2,SSW,24.2,-,N/A,,Mostly Cloudy,210,2012-11-13 14:30:00
3:00 PM,55.4,50.0,82,30.01,6.2,SSW,21.9,-,N/A,,Mostly Cloudy,210,2012-11-13 15:00:00
3:30 PM,55.4,50.0,82,30.01,6.2,SSW,23.0,-,N/A,,Mostly Cloudy,210,2012-11-13 15:30:00
4:00 PM,55.4,50.0,82,30.01,6.2,SSW,21.9,-,N/A,,Mostly Cloudy,210,2012-11-13 16:00:00
4:30 PM,55.4,50.0,82,30.01,6.2,SSW,21.9,33.4,N/A,,Mostly Cloudy,210,2012-11-13 16:30:00
5:00 PM,55.4,50.0,82,30.01,6.2,SSW,17.3,-,N/A,,Mostly Cloudy,210,2012-11-13 17:00:00
5:30 PM,53.6,51.8,94,30.04,6.2,SSW,17.3,-,N/A,,Mostly Cloudy,210,2012-11-13 17:30:00
6:00 PM,54,51,87,30.05,4,SSW,15.7,,,Rain,Light Drizzle,210,2012-11-13 18:00:00
6:00 PM,53.6,51.8,94,30.04,4.3,SSW,16.1,-,N/A,,Light Drizzle,210,2012-11-13 18:00:00
6:30 PM,55.4,50.0,82,30.04,6.2,SSW,17.3,28.8,N/A,,Mostly Cloudy,210,2012-11-13 18:30:00
7:00 PM,55.4,50.0,82,30.04,6.2,SSW,20.7,-,N/A,,Mostly Cloudy,210,2012-11-13 19:00:00
7:30 PM,55.4,50.0,82,30.06,6.2,SSW,18.4,-,N/A,,Mostly Cloudy,210,2012-11-13 19:30:00
8:00 PM,55.4,51.8,88,30.06,6.2,SSW,16.1,-,N/A,,Mostly Cloudy,210,2012-11-13 20:00:00
8:30 PM,53.6,51.8,94,30.06,6.2,SSW,15.0,-,N/A,,Mostly Cloudy,210,2012-11-13 20:30:00
9:00 PM,53.6,51.8,94,30.06,6.2,SSW,13.8,-,N/A,,Light Drizzle,210,2012-11-13 21:00:00
9:30 PM,53.6,51.8,94,30.09,6.2,SSW,11.5,-,N/A,,Light Drizzle,210,2012-11-13 21:30:00
10:00 PM,53.6,51.8,94,30.09,3.7,SSW,12.7,-,N/A,,Light Drizzle,210,2012-11-13 22:00:00
10:30 PM,53.6,51.8,94,30.09,6.2,SSW,11.5,-,N/A,,Light Drizzle,200,2012-11-13 22:30:00
11:00 PM,53.6,51.8,94,30.09,6.2,SSW,9.2,-,N/A,,Light Drizzle,200,2012-11-13 23:00:00
11:30 PM,53.6,51.8,94,30.09,6.2,SSW,10.4,-,N/A,Rain,Light Rain,200,2012-11-13 23:30:00